createdAt,value
2018-08-03T00:00:30.081Z,8.43
2018-08-03T00:01:46.761Z,8.40
2018-08-03T00:03:03.544Z,8.43
2018-08-03T00:04:21.123Z,8.27
2018-08-03T00:05:37.978Z,7.67
2018-08-03T00:06:55.560Z,7.90
2018-08-03T00:08:12.289Z,9.50
2018-08-03T00:09:28.939Z,8.87
2018-08-03T00:10:45.835Z,7.73
2018-08-03T00:12:02.700Z,8.37
2018-08-03T00:13:19.388Z,7.63
2018-08-03T00:14:36.198Z,7.80
2018-08-03T00:15:53.181Z,7.93
2018-08-03T00:17:09.957Z,7.60
2018-08-03T00:18:26.768Z,8.97
2018-08-03T00:19:43.913Z,7.63
2018-08-03T00:21:00.544Z,8.77
2018-08-03T00:22:17.601Z,8.73
2018-08-03T00:23:34.961Z,8.30
2018-08-03T00:24:52.251Z,8.00
2018-08-03T00:26:10.152Z,7.67
2018-08-03T00:27:27.688Z,8.67
2018-08-03T00:28:44.320Z,8.23
2018-08-03T00:30:01.335Z,7.97
2018-08-03T00:31:19.396Z,8.43
2018-08-03T00:32:36.451Z,7.57
2018-08-03T00:33:53.415Z,9.33
2018-08-03T00:35:10.118Z,7.33
2018-08-03T00:36:27.149Z,8.00
2018-08-03T00:37:44.488Z,8.47
2018-08-03T00:39:01.482Z,8.20
2018-08-03T00:40:18.240Z,10.10
2018-08-03T00:41:35.149Z,7.67
2018-08-03T00:42:52.137Z,8.10
2018-08-03T00:44:09.785Z,8.67
2018-08-03T00:45:26.334Z,8.53
2018-08-03T00:46:43.172Z,8.33
2018-08-03T00:47:59.933Z,9.00
2018-08-03T00:49:16.895Z,13.13
2018-08-03T00:50:33.579Z,8.03
2018-08-03T00:51:50.610Z,10.97
2018-08-03T00:53:08.081Z,8.87
2018-08-03T00:54:25.026Z,8.00
2018-08-03T00:55:41.665Z,7.57
2018-08-03T00:56:58.486Z,7.87
2018-08-03T00:58:15.553Z,7.00
2018-08-03T00:59:32.497Z,8.87
2018-08-03T01:00:49.152Z,8.60
2018-08-03T01:02:06.109Z,8.67
2018-08-03T01:03:22.833Z,7.23
2018-08-03T01:04:39.685Z,8.80
2018-08-03T01:05:56.408Z,8.23
2018-08-03T01:07:13.418Z,8.53
2018-08-03T01:08:30.140Z,10.00
2018-08-03T01:09:47.042Z,7.70
2018-08-03T01:11:04.087Z,8.97
2018-08-03T01:12:20.639Z,8.73
2018-08-03T01:13:37.441Z,8.50
2018-08-03T01:14:54.412Z,8.23
2018-08-03T01:16:11.100Z,8.43
2018-08-03T01:17:27.797Z,8.03
2018-08-03T01:18:44.752Z,8.13
2018-08-03T01:20:01.656Z,7.77
2018-08-03T01:21:18.357Z,7.70
2018-08-03T01:22:35.244Z,8.47
2018-08-03T01:23:52.072Z,7.40
2018-08-03T01:25:09.099Z,9.07
2018-08-03T01:26:25.813Z,10.00
2018-08-03T01:27:42.372Z,10.67
2018-08-03T01:28:59.618Z,7.57
2018-08-03T01:30:17.168Z,8.90
2018-08-03T01:31:34.178Z,9.70
2018-08-03T01:32:50.889Z,7.57
2018-08-03T01:34:08.520Z,8.60
2018-08-03T01:35:25.328Z,8.03
2018-08-03T01:36:42.074Z,8.93
2018-08-03T01:37:59.131Z,8.20
2018-08-03T01:39:15.924Z,7.60
2018-08-03T01:40:33.429Z,8.40
2018-08-03T01:41:49.948Z,7.83
2018-08-03T01:43:06.951Z,8.20
2018-08-03T01:44:23.628Z,9.20
2018-08-03T01:45:40.285Z,15.30
2018-08-03T01:46:57.264Z,8.10
2018-08-03T01:48:13.985Z,8.27
2018-08-03T01:49:30.657Z,8.20
2018-08-03T01:50:47.704Z,9.00
2018-08-03T01:52:04.575Z,8.17
2018-08-03T01:53:21.392Z,8.90
2018-08-03T01:54:38.502Z,8.90
2018-08-03T01:55:55.220Z,8.20
2018-08-03T01:57:12.016Z,9.93
2018-08-03T01:58:29.038Z,8.10
2018-08-03T01:59:45.595Z,8.70
2018-08-03T02:01:02.704Z,8.97
2018-08-03T02:02:19.188Z,8.53
2018-08-03T02:03:36.200Z,10.43
2018-08-03T02:04:52.907Z,8.63
2018-08-03T02:06:10.011Z,7.87
2018-08-03T02:07:26.980Z,7.70
2018-08-03T02:08:43.753Z,8.97
2018-08-03T02:10:00.637Z,9.40
2018-08-03T02:11:17.631Z,7.80
2018-08-03T02:12:34.472Z,8.13
2018-08-03T02:13:51.631Z,9.40
2018-08-03T02:15:09.455Z,8.80
2018-08-03T02:16:26.868Z,8.20
2018-08-03T02:17:44.054Z,7.30
2018-08-03T02:19:01.774Z,13.43
2018-08-03T02:20:18.703Z,8.40
2018-08-03T02:21:35.385Z,8.90
2018-08-03T02:22:52.405Z,8.83
2018-08-03T02:24:09.248Z,8.97
2018-08-03T02:25:26.868Z,11.93
2018-08-03T02:26:43.538Z,9.93
2018-08-03T02:28:00.405Z,7.90
2018-08-03T02:29:17.385Z,11.40
2018-08-03T02:30:34.280Z,8.53
2018-08-03T02:31:51.052Z,8.70
2018-08-03T02:33:07.931Z,8.60
2018-08-03T02:34:24.680Z,7.53
2018-08-03T02:35:41.666Z,8.57
2018-08-03T02:36:58.530Z,8.50
2018-08-03T02:38:15.216Z,11.20
2018-08-03T02:39:31.761Z,8.17
2018-08-03T02:40:48.965Z,8.80
2018-08-03T02:42:06.449Z,8.40
2018-08-03T02:43:23.337Z,8.13
2018-08-03T02:44:40.089Z,9.17
2018-08-03T02:45:56.646Z,8.70
2018-08-03T02:47:14.185Z,9.60
2018-08-03T02:48:31.713Z,8.20
2018-08-03T02:49:48.612Z,9.63
2018-08-03T02:51:05.957Z,7.40
2018-08-03T02:52:23.309Z,8.40
2018-08-03T02:53:40.105Z,9.63
2018-08-03T02:54:57.033Z,10.03
2018-08-03T02:56:13.877Z,11.00
2018-08-03T02:57:30.700Z,9.13
2018-08-03T02:58:47.947Z,8.33
2018-08-03T03:00:04.808Z,8.40
2018-08-03T03:01:22.279Z,7.90
2018-08-03T03:02:39.448Z,9.43
2018-08-03T03:03:56.857Z,7.60
2018-08-03T03:05:13.669Z,7.87
2018-08-03T03:06:30.541Z,7.87
2018-08-03T03:07:47.430Z,7.53
2018-08-03T03:09:05.989Z,7.17
2018-08-03T03:10:23.160Z,8.83
2018-08-03T03:11:39.783Z,9.17
2018-08-03T03:12:56.304Z,8.70
2018-08-03T03:14:13.037Z,8.53
2018-08-03T03:15:29.804Z,8.90
2018-08-03T03:16:46.535Z,8.27
2018-08-03T03:18:03.109Z,8.53
2018-08-03T03:19:20.171Z,8.27
2018-08-03T03:20:37.118Z,8.80
2018-08-03T03:21:54.517Z,8.83
2018-08-03T03:23:11.004Z,7.63
2018-08-03T03:24:28.262Z,9.00
2018-08-03T03:25:45.026Z,9.57
2018-08-03T03:27:01.937Z,8.67
2018-08-03T03:28:18.921Z,8.73
2018-08-03T03:29:35.991Z,9.03
2018-08-03T03:30:52.530Z,9.10
2018-08-03T03:32:09.849Z,9.40
2018-08-03T03:33:26.461Z,12.20
2018-08-03T03:34:43.553Z,10.33
2018-08-03T03:36:00.362Z,7.70
2018-08-03T03:37:17.585Z,9.57
2018-08-03T03:38:34.576Z,8.57
2018-08-03T03:39:51.558Z,8.30
2018-08-03T03:41:08.337Z,8.60
2018-08-03T03:42:25.103Z,8.13
2018-08-03T03:43:42.217Z,8.63
2018-08-03T03:44:59.029Z,8.33
2018-08-03T03:46:15.889Z,8.20
2018-08-03T03:47:32.538Z,8.90
2018-08-03T03:48:49.204Z,9.33
2018-08-03T03:50:06.608Z,9.93
2018-08-03T03:51:23.995Z,8.40
2018-08-03T03:52:40.597Z,10.87
2018-08-03T03:53:57.264Z,9.00
2018-08-03T03:55:14.363Z,9.67
2018-08-03T03:56:32.069Z,10.87
2018-08-03T03:57:48.717Z,8.87
2018-08-03T03:59:05.179Z,19.43
2018-08-03T04:00:22.329Z,10.23
2018-08-03T04:01:39.233Z,8.43
2018-08-03T04:02:56.101Z,7.43
2018-08-03T04:04:12.945Z,8.90
2018-08-03T04:05:30.075Z,9.80
2018-08-03T04:06:47.440Z,8.40
2018-08-03T04:08:04.219Z,8.73
2018-08-03T04:09:21.112Z,11.23
2018-08-03T04:10:37.877Z,9.87
2018-08-03T04:11:54.779Z,10.33
2018-08-03T04:13:11.934Z,8.57
2018-08-03T04:14:28.584Z,9.03
2018-08-03T04:15:45.535Z,9.97
2018-08-03T04:17:02.382Z,10.20
2018-08-03T04:18:21.225Z,10.40
2018-08-03T04:19:38.232Z,9.20
2018-08-03T04:20:55.743Z,9.60
2018-08-03T04:22:12.753Z,11.20
2018-08-03T04:23:29.510Z,9.73
2018-08-03T04:24:46.313Z,9.53
2018-08-03T04:26:03.352Z,14.83
2018-08-03T04:27:20.252Z,11.20
2018-08-03T04:28:37.269Z,11.00
2018-08-03T04:29:54.361Z,11.20
2018-08-03T04:31:11.217Z,11.83
2018-08-03T04:32:27.869Z,11.80
2018-08-03T04:33:44.749Z,9.90
2018-08-03T04:35:01.574Z,10.90
2018-08-03T04:36:18.563Z,10.87
2018-08-03T04:37:35.237Z,10.93
2018-08-03T04:38:52.253Z,11.13
2018-08-03T04:40:08.743Z,12.23
2018-08-03T04:41:25.867Z,10.90
2018-08-03T04:42:42.746Z,10.60
2018-08-03T04:43:59.990Z,10.77
2018-08-03T04:45:16.852Z,10.30
2018-08-03T04:46:33.717Z,10.23
2018-08-03T04:47:50.725Z,10.77
2018-08-03T04:49:07.636Z,10.37
2018-08-03T04:50:24.460Z,10.90
2018-08-03T04:51:42.033Z,9.83
2018-08-03T04:52:59.079Z,11.07
2018-08-03T04:54:15.997Z,11.70
2018-08-03T04:55:32.667Z,10.97
2018-08-03T04:56:49.649Z,11.10
2018-08-03T04:58:06.573Z,10.23
2018-08-03T04:59:23.424Z,10.03
2018-08-03T05:00:40.045Z,11.10
2018-08-03T05:01:56.784Z,12.10
2018-08-03T05:03:13.922Z,10.37
2018-08-03T05:04:30.311Z,11.40
2018-08-03T05:05:47.427Z,10.90
2018-08-03T05:07:04.820Z,13.30
2018-08-03T05:08:21.682Z,9.50
2018-08-03T05:09:38.638Z,11.03
2018-08-03T05:10:55.511Z,20.90
2018-08-03T05:12:11.952Z,12.40
2018-08-03T05:13:29.122Z,11.10
2018-08-03T05:14:46.025Z,11.23
2018-08-03T05:16:02.881Z,11.67
2018-08-03T05:17:20.073Z,14.50
2018-08-03T05:18:37.716Z,11.10
2018-08-03T05:19:54.348Z,12.00
2018-08-03T05:21:12.000Z,13.50
2018-08-03T05:22:28.736Z,19.13
2018-08-03T05:23:45.648Z,21.60
2018-08-03T05:25:02.532Z,19.37
2018-08-03T05:26:19.907Z,19.00
2018-08-03T05:27:37.236Z,19.07
2018-08-03T05:28:55.193Z,29.37
2018-08-03T05:30:12.126Z,30.03
2018-08-03T05:31:28.772Z,27.97
2018-08-03T05:32:45.688Z,22.07
2018-08-03T05:34:02.637Z,20.37
2018-08-03T05:35:19.466Z,19.00
2018-08-03T05:36:36.512Z,17.23
2018-08-03T05:37:53.182Z,16.07
2018-08-03T05:39:11.216Z,14.30
2018-08-03T05:40:28.488Z,13.40
2018-08-03T05:41:45.712Z,13.67
2018-08-03T05:43:02.765Z,14.33
2018-08-03T05:44:19.936Z,14.10
2018-08-03T05:45:37.570Z,13.17
2018-08-03T05:46:54.601Z,16.97
2018-08-03T05:48:11.635Z,12.57
2018-08-03T05:49:28.508Z,12.20
2018-08-03T05:50:45.396Z,12.23
2018-08-03T05:52:02.365Z,13.23
2018-08-03T05:53:19.175Z,11.87
2018-08-03T05:54:36.152Z,12.90
2018-08-03T05:55:53.008Z,11.70
2018-08-03T05:57:09.896Z,11.43
2018-08-03T05:58:27.108Z,10.63
2018-08-03T05:59:44.189Z,11.97
2018-08-03T06:01:01.118Z,10.63
2018-08-03T06:02:18.261Z,13.30
2018-08-03T06:03:35.220Z,11.43
2018-08-03T06:04:52.336Z,18.57
2018-08-03T06:06:09.322Z,13.40
2018-08-03T06:07:26.124Z,14.17
2018-08-03T06:08:43.346Z,15.00
2018-08-03T06:09:59.956Z,14.10
2018-08-03T06:11:17.197Z,11.73
2018-08-03T06:12:34.816Z,13.30
2018-08-03T06:13:51.544Z,13.33
2018-08-03T06:15:09.605Z,13.70
2018-08-03T06:16:26.112Z,14.80
2018-08-03T06:17:42.814Z,14.10
2018-08-03T06:18:59.329Z,11.60
2018-08-03T06:20:15.974Z,12.43
2018-08-03T06:21:32.816Z,16.37
2018-08-03T06:22:50.625Z,15.73
2018-08-03T06:24:08.053Z,13.70
2018-08-03T06:25:25.224Z,11.57
2018-08-03T06:26:41.808Z,10.90
2018-08-03T06:27:58.737Z,12.40
2018-08-03T06:29:16.243Z,11.07
2018-08-03T06:30:33.369Z,11.70
2018-08-03T06:31:50.293Z,11.83
2018-08-03T06:33:07.209Z,11.50
2018-08-03T06:34:23.804Z,10.20
2018-08-03T06:35:40.573Z,10.80
2018-08-03T06:36:57.401Z,13.63
2018-08-03T06:38:14.525Z,13.43
2018-08-03T06:39:31.967Z,13.03
2018-08-03T06:40:48.820Z,13.77
2018-08-03T06:42:05.843Z,12.27
2018-08-03T06:43:22.618Z,12.07
2018-08-03T06:44:38.909Z,12.17
2018-08-03T06:45:55.757Z,13.67
2018-08-03T06:47:12.311Z,14.30
2018-08-03T06:48:29.449Z,11.73
2018-08-03T06:49:46.001Z,11.00
2018-08-03T06:51:03.090Z,12.53
2018-08-03T06:52:20.005Z,13.47
2018-08-03T06:53:37.011Z,12.60
2018-08-03T06:54:54.240Z,11.43
2018-08-03T06:56:11.821Z,13.03
2018-08-03T06:57:28.980Z,12.60
2018-08-03T06:58:46.113Z,12.20
2018-08-03T07:00:02.944Z,13.30
2018-08-03T07:01:20.226Z,13.47
2018-08-03T07:02:37.196Z,12.10
2018-08-03T07:03:54.025Z,13.23
2018-08-03T07:05:10.781Z,12.80
2018-08-03T07:06:28.085Z,12.23
2018-08-03T07:07:44.975Z,11.07
2018-08-03T07:09:02.641Z,13.47
2018-08-03T07:10:19.445Z,13.07
2018-08-03T07:11:36.637Z,12.57
2018-08-03T07:12:54.432Z,13.97
2018-08-03T07:14:11.232Z,14.00
2018-08-03T07:15:27.889Z,12.50
2018-08-03T07:16:44.521Z,11.40
2018-08-03T07:18:01.443Z,12.27
2018-08-03T07:19:18.439Z,12.03
2018-08-03T07:20:35.197Z,11.40
2018-08-03T07:21:52.273Z,11.03
2018-08-03T07:23:09.049Z,13.13
2018-08-03T07:24:26.570Z,11.67
2018-08-03T07:25:43.665Z,11.13
2018-08-03T07:27:01.268Z,11.43
2018-08-03T07:28:18.165Z,11.70
2018-08-03T07:29:35.593Z,15.40
2018-08-03T07:30:52.488Z,13.60
2018-08-03T07:32:09.057Z,17.13
2018-08-03T07:33:25.783Z,11.33
2018-08-03T07:34:42.881Z,10.73
2018-08-03T07:35:59.920Z,11.80
2018-08-03T07:37:16.722Z,11.63
2018-08-03T07:38:33.289Z,10.80
2018-08-03T07:39:50.005Z,10.57
2018-08-03T07:41:06.971Z,13.47
2018-08-03T07:42:23.924Z,12.67
2018-08-03T07:43:40.902Z,11.40
2018-08-03T07:44:57.820Z,12.03
2018-08-03T07:46:14.857Z,10.83
2018-08-03T07:47:31.639Z,11.53
2018-08-03T07:48:49.297Z,11.60
2018-08-03T07:50:05.938Z,12.03
2018-08-03T07:51:22.681Z,9.93
2018-08-03T07:52:39.488Z,13.47
2018-08-03T07:53:56.021Z,12.63
2018-08-03T07:55:13.041Z,11.47
2018-08-03T07:56:29.961Z,11.83
2018-08-03T07:57:46.847Z,11.70
2018-08-03T07:59:03.471Z,10.67
2018-08-03T08:00:20.198Z,11.27
2018-08-03T08:01:36.866Z,11.50
2018-08-03T08:02:53.687Z,15.27
2018-08-03T08:04:10.524Z,11.17
2018-08-03T08:05:27.247Z,12.87
2018-08-03T08:06:44.124Z,11.27
2018-08-03T08:08:01.850Z,11.17
2018-08-03T08:09:18.572Z,10.77
2018-08-03T08:10:35.454Z,10.20
2018-08-03T08:11:52.583Z,12.10
2018-08-03T08:13:09.358Z,12.43
2018-08-03T08:14:26.207Z,14.20
2018-08-03T08:15:43.221Z,11.67
2018-08-03T08:17:00.288Z,10.53
2018-08-03T08:18:16.961Z,12.43
2018-08-03T08:19:33.647Z,10.80
2018-08-03T08:20:50.193Z,10.30
2018-08-03T08:22:07.412Z,11.93
2018-08-03T08:23:24.249Z,11.80
2018-08-03T08:24:41.415Z,13.47
2018-08-03T08:25:58.763Z,12.80
2018-08-03T08:27:15.547Z,12.93
2018-08-03T08:28:32.312Z,12.17
2018-08-03T08:29:49.310Z,11.73
2018-08-03T08:31:06.380Z,13.30
2018-08-03T08:32:23.114Z,14.23
2018-08-03T08:33:40.076Z,14.87
2018-08-03T08:34:56.958Z,12.60
2018-08-03T08:36:14.025Z,11.10
2018-08-03T08:37:30.709Z,11.00
2018-08-03T08:38:47.286Z,11.80
2018-08-03T08:40:04.787Z,10.60
2018-08-03T08:41:22.152Z,9.80
2018-08-03T08:42:38.848Z,10.80
2018-08-03T08:43:55.531Z,15.83
2018-08-03T08:45:12.273Z,12.07
2018-08-03T08:46:29.077Z,13.87
2018-08-03T08:47:46.062Z,13.50
2018-08-03T08:49:04.023Z,13.40
2018-08-03T08:50:21.532Z,13.77
2018-08-03T08:51:38.316Z,12.80
2018-08-03T08:52:55.370Z,11.70
2018-08-03T08:54:12.182Z,11.47
2018-08-03T08:55:28.830Z,13.27
2018-08-03T08:56:45.312Z,12.80
2018-08-03T08:58:02.384Z,12.87
2018-08-03T08:59:19.196Z,11.87
2018-08-03T09:00:37.125Z,11.67
2018-08-03T09:01:54.835Z,14.83
2018-08-03T09:03:12.261Z,16.10
2018-08-03T09:04:29.189Z,11.63
2018-08-03T09:05:46.827Z,11.53
2018-08-03T09:07:03.944Z,11.17
2018-08-03T09:08:20.812Z,12.77
2018-08-03T09:09:37.705Z,11.00
2018-08-03T09:10:55.349Z,10.90
2018-08-03T09:12:12.118Z,11.77
2018-08-03T09:13:29.031Z,17.97
2018-08-03T09:14:45.996Z,11.33
2018-08-03T09:16:02.750Z,10.40
2018-08-03T09:17:20.000Z,10.77
2018-08-03T09:18:37.109Z,10.50
2018-08-03T09:19:53.776Z,11.30
2018-08-03T09:21:10.593Z,11.97
2018-08-03T09:22:27.505Z,11.40
2018-08-03T09:23:44.649Z,11.73
2018-08-03T09:25:01.488Z,10.70
2018-08-03T09:26:18.517Z,10.33
2018-08-03T09:27:36.089Z,11.43
2018-08-03T09:28:53.098Z,13.70
2018-08-03T09:30:10.389Z,10.57
2018-08-03T09:31:28.074Z,13.80
2018-08-03T09:32:45.070Z,11.67
2018-08-03T09:34:02.128Z,9.53
2018-08-03T09:35:18.671Z,11.27
2018-08-03T09:36:35.403Z,10.03
2018-08-03T09:37:52.083Z,11.53
2018-08-03T09:39:09.833Z,10.67
2018-08-03T09:40:26.704Z,11.17
2018-08-03T09:41:43.660Z,10.30
2018-08-03T09:43:00.411Z,11.00
2018-08-03T09:44:17.152Z,10.57
2018-08-03T09:45:33.868Z,11.50
2018-08-03T09:46:50.541Z,11.13
2018-08-03T09:48:07.536Z,18.80
2018-08-03T09:49:24.279Z,10.67
2018-08-03T09:50:41.072Z,10.80
2018-08-03T09:51:58.285Z,14.33
2018-08-03T09:53:15.776Z,10.13
2018-08-03T09:54:32.892Z,11.90
2018-08-03T09:55:49.532Z,12.53
2018-08-03T09:57:06.136Z,11.20
2018-08-03T09:58:23.720Z,10.07
2018-08-03T09:59:41.020Z,9.80
2018-08-03T10:01:01.691Z,12.03
2018-08-03T10:02:18.464Z,10.77
2018-08-03T10:03:35.174Z,10.97
2018-08-03T10:04:52.047Z,10.90
2018-08-03T10:06:09.508Z,9.93
2018-08-03T10:07:26.764Z,9.20
2018-08-03T10:08:43.563Z,10.53
2018-08-03T10:10:00.673Z,10.83
2018-08-03T10:11:18.008Z,10.80
2018-08-03T10:12:34.844Z,9.23
2018-08-03T10:13:51.876Z,11.50
2018-08-03T10:15:09.472Z,9.73
2018-08-03T10:16:27.092Z,12.23
2018-08-03T10:17:44.079Z,11.27
2018-08-03T10:19:01.556Z,11.53
2018-08-03T10:20:18.344Z,10.17
2018-08-03T10:21:35.341Z,9.97
2018-08-03T10:22:52.631Z,11.30
2018-08-03T10:24:10.459Z,11.97
2018-08-03T10:25:27.142Z,10.83
2018-08-03T10:26:44.204Z,11.87
2018-08-03T10:28:00.868Z,11.43
2018-08-03T10:29:18.676Z,11.30
2018-08-03T10:30:36.058Z,11.90
2018-08-03T10:31:52.978Z,10.50
2018-08-03T10:33:09.954Z,13.20
2018-08-03T10:34:26.770Z,10.60
2018-08-03T10:35:43.698Z,11.00
2018-08-03T10:37:00.546Z,10.50
2018-08-03T10:38:17.825Z,10.80
2018-08-03T10:39:35.398Z,10.63
2018-08-03T10:40:52.349Z,13.77
2018-08-03T10:42:09.088Z,12.13
2018-08-03T10:43:25.953Z,11.30
2018-08-03T10:44:42.856Z,11.00
2018-08-03T10:46:00.215Z,11.30
2018-08-03T10:47:17.196Z,11.20
2018-08-03T10:48:33.785Z,13.70
2018-08-03T10:49:50.612Z,11.50
2018-08-03T10:51:07.793Z,11.67
2018-08-03T10:52:24.860Z,11.17
2018-08-03T10:53:41.900Z,14.83
2018-08-03T10:54:58.688Z,10.37
2018-08-03T10:56:15.264Z,11.67
2018-08-03T10:57:32.165Z,10.97
2018-08-03T10:58:49.767Z,10.93
2018-08-03T11:00:07.185Z,12.77
2018-08-03T11:01:24.507Z,16.30
2018-08-03T11:02:41.099Z,12.67
2018-08-03T11:03:57.842Z,9.30
2018-08-03T11:05:14.784Z,10.57
2018-08-03T11:06:32.424Z,9.07
2018-08-03T11:07:49.532Z,9.67
2018-08-03T11:09:07.897Z,9.10
2018-08-03T11:10:24.914Z,13.03
2018-08-03T11:11:41.759Z,11.80
2018-08-03T11:12:58.703Z,9.30
2018-08-03T11:14:15.304Z,8.60
2018-08-03T11:15:32.012Z,10.30
2018-08-03T11:16:48.869Z,10.90
2018-08-03T11:18:05.741Z,10.53
2018-08-03T11:19:23.684Z,12.50
2018-08-03T11:20:41.137Z,10.57
2018-08-03T11:21:58.186Z,11.40
2018-08-03T11:23:15.117Z,11.53
2018-08-03T11:24:31.740Z,11.50
2018-08-03T11:25:48.812Z,11.20
2018-08-03T11:27:06.109Z,11.87
2018-08-03T11:28:23.643Z,9.90
2018-08-03T11:29:40.995Z,11.97
2018-08-03T11:30:58.012Z,9.60
2018-08-03T11:32:14.803Z,13.63
2018-08-03T11:33:31.670Z,10.00
2018-08-03T11:34:48.225Z,9.30
2018-08-03T11:36:05.209Z,9.70
2018-08-03T11:37:22.341Z,9.03
2018-08-03T11:38:39.073Z,8.10
2018-08-03T11:39:55.837Z,8.90
2018-08-03T11:41:13.729Z,8.83
2018-08-03T11:42:31.252Z,8.03
2018-08-03T11:43:47.776Z,9.70
2018-08-03T11:45:06.231Z,8.57
2018-08-03T11:46:23.628Z,8.77
2018-08-03T11:47:40.805Z,7.63
2018-08-03T11:48:58.253Z,11.70
2018-08-03T11:50:15.070Z,8.47
2018-08-03T11:51:32.032Z,12.83
2018-08-03T11:52:48.848Z,9.70
2018-08-03T11:54:05.910Z,8.37
2018-08-03T11:55:22.764Z,8.63
2018-08-03T11:56:39.496Z,8.57
2018-08-03T11:57:56.054Z,8.80
2018-08-03T11:59:12.860Z,8.67
2018-08-03T12:00:29.822Z,12.43
2018-08-03T12:01:47.538Z,8.70
2018-08-03T12:03:04.227Z,6.67
2018-08-03T12:04:21.265Z,8.47
2018-08-03T12:05:37.850Z,7.03
2018-08-03T12:06:54.818Z,8.83
2018-08-03T12:08:11.752Z,8.43
2018-08-03T12:09:29.131Z,9.03
2018-08-03T12:10:46.090Z,8.40
2018-08-03T12:12:02.782Z,8.10
2018-08-03T12:13:19.632Z,7.17
2018-08-03T12:14:36.413Z,7.23
2018-08-03T12:15:53.152Z,8.03
2018-08-03T12:17:10.170Z,7.20
2018-08-03T12:18:27.037Z,8.60
2018-08-03T12:19:43.800Z,8.30
2018-08-03T12:21:00.626Z,8.70
2018-08-03T12:22:17.697Z,7.90
2018-08-03T12:23:34.268Z,8.77
2018-08-03T12:24:51.314Z,8.10
2018-08-03T12:26:08.690Z,9.30
2018-08-03T12:27:25.662Z,7.37
2018-08-03T12:28:42.530Z,8.17
2018-08-03T12:29:59.306Z,7.30
2018-08-03T12:31:16.217Z,11.30
2018-08-03T12:32:33.607Z,7.90
2018-08-03T12:33:50.633Z,8.07
2018-08-03T12:35:07.337Z,9.77
2018-08-03T12:36:24.377Z,7.50
2018-08-03T12:37:41.156Z,8.40
2018-08-03T12:38:58.089Z,7.70
2018-08-03T12:40:15.589Z,8.10
2018-08-03T12:41:32.347Z,8.40
2018-08-03T12:42:48.899Z,7.77
2018-08-03T12:44:05.736Z,7.80
2018-08-03T12:45:22.356Z,6.97
2018-08-03T12:46:39.528Z,9.70
2018-08-03T12:47:56.327Z,6.50
2018-08-03T12:49:13.429Z,8.00
2018-08-03T12:50:30.924Z,7.73
2018-08-03T12:51:47.692Z,7.10
2018-08-03T12:53:04.724Z,6.87
2018-08-03T12:54:21.684Z,8.43
2018-08-03T12:55:38.604Z,8.37
2018-08-03T12:56:55.732Z,6.80
2018-08-03T12:58:13.209Z,6.90
2018-08-03T12:59:30.271Z,8.00
2018-08-03T13:00:46.872Z,7.30
2018-08-03T13:02:03.719Z,6.73
2018-08-03T13:03:21.292Z,5.90
2018-08-03T13:04:38.139Z,8.07
2018-08-03T13:05:55.037Z,6.53
2018-08-03T13:07:12.687Z,6.97
2018-08-03T13:08:29.585Z,8.70
2018-08-03T13:09:46.097Z,6.87
2018-08-03T13:11:02.756Z,7.13
2018-08-03T13:12:19.550Z,6.80
2018-08-03T13:13:36.253Z,6.67
2018-08-03T13:14:53.273Z,8.10
2018-08-03T13:16:11.157Z,7.27
2018-08-03T13:17:28.566Z,7.73
2018-08-03T13:18:45.377Z,6.97
2018-08-03T13:20:02.157Z,6.80
2018-08-03T13:21:30.205Z,6.83
2018-08-03T13:22:47.661Z,7.30
2018-08-03T13:24:04.766Z,6.60
2018-08-03T13:25:22.537Z,7.43
2018-08-03T13:26:39.217Z,8.53
2018-08-03T13:27:56.037Z,11.10
2018-08-03T13:29:12.753Z,6.43
2018-08-03T13:30:29.393Z,8.40
2018-08-03T13:31:46.040Z,6.37
2018-08-03T13:33:02.837Z,11.23
2018-08-03T13:34:19.633Z,6.23
2018-08-03T13:35:37.433Z,7.00
2018-08-03T13:36:53.767Z,6.60
2018-08-03T13:38:10.754Z,6.80
2018-08-03T13:39:27.737Z,6.80
2018-08-03T13:40:44.609Z,8.63
2018-08-03T13:42:02.077Z,8.00
2018-08-03T13:43:19.184Z,6.67
2018-08-03T13:44:35.842Z,6.43
2018-08-03T13:45:52.638Z,8.03
2018-08-03T13:47:10.248Z,7.30
2018-08-03T13:48:27.204Z,8.40
2018-08-03T13:49:43.972Z,9.33
2018-08-03T13:51:00.483Z,9.87
2018-08-03T13:52:17.724Z,8.53
2018-08-03T13:53:35.328Z,8.13
2018-08-03T13:54:52.081Z,6.97
2018-08-03T13:56:09.593Z,9.03
2018-08-03T13:57:26.773Z,7.53
2018-08-03T13:58:44.863Z,7.43
2018-08-03T14:00:02.114Z,7.37
2018-08-03T14:01:30.046Z,7.17
2018-08-03T14:02:46.632Z,7.00
2018-08-03T14:04:03.609Z,8.10
2018-08-03T14:05:20.383Z,9.13
2018-08-03T14:06:37.598Z,12.30
2018-08-03T14:07:55.205Z,8.00
2018-08-03T14:09:13.617Z,7.40
2018-08-03T14:10:30.582Z,7.80
2018-08-03T14:11:47.407Z,7.67
2018-08-03T14:13:05.129Z,8.70
2018-08-03T14:14:22.898Z,6.97
2018-08-03T14:15:40.372Z,11.47
2018-08-03T14:16:57.485Z,7.23
2018-08-03T14:18:14.107Z,8.87
2018-08-03T14:19:31.497Z,12.03
2018-08-03T14:20:48.169Z,9.50
2018-08-03T14:22:05.585Z,7.40
2018-08-03T14:23:22.628Z,8.37
2018-08-03T14:24:39.729Z,7.00
2018-08-03T14:25:56.940Z,7.83
2018-08-03T14:27:13.629Z,8.00
2018-08-03T14:28:30.760Z,11.63
2018-08-03T14:29:47.344Z,8.00
2018-08-03T14:31:04.317Z,7.57
2018-08-03T14:32:21.002Z,7.40
2018-08-03T14:33:38.014Z,8.93
2018-08-03T14:34:55.195Z,8.97
2018-08-03T14:36:12.703Z,8.70
2018-08-03T14:37:29.542Z,8.33
2018-08-03T14:38:46.158Z,7.80
2018-08-03T14:40:03.038Z,8.20
2018-08-03T14:41:20.548Z,8.77
2018-08-03T14:42:37.345Z,11.43
2018-08-03T14:43:53.976Z,7.57
2018-08-03T14:45:10.755Z,8.47
2018-08-03T14:46:28.385Z,8.80
2018-08-03T14:47:45.295Z,9.53
2018-08-03T14:49:02.718Z,10.07
2018-08-03T14:50:19.416Z,9.97
2018-08-03T14:51:36.683Z,11.27
2018-08-03T14:52:54.093Z,10.67
2018-08-03T14:54:10.815Z,13.10
2018-08-03T14:55:27.716Z,9.93
2018-08-03T14:56:44.659Z,9.17
2018-08-03T14:58:01.352Z,8.53
2018-08-03T14:59:18.384Z,8.27
2018-08-03T15:00:35.777Z,9.53
2018-08-03T15:01:52.776Z,8.13
2018-08-03T15:03:10.052Z,8.90
2018-08-03T15:04:27.653Z,8.70
2018-08-03T15:05:45.591Z,8.23
2018-08-03T15:07:02.720Z,10.33
2018-08-03T15:08:19.878Z,8.53
2018-08-03T15:09:37.267Z,7.80
2018-08-03T15:10:54.157Z,10.03
2018-08-03T15:12:10.931Z,7.30
2018-08-03T15:13:27.879Z,10.50
2018-08-03T15:14:44.885Z,24.93
2018-08-03T15:16:01.772Z,7.70
2018-08-03T15:17:18.553Z,7.30
2018-08-03T15:18:35.539Z,9.43
2018-08-03T15:19:53.120Z,9.07
2018-08-03T15:21:09.869Z,8.80
2018-08-03T15:22:26.669Z,6.97
2018-08-03T15:23:43.658Z,7.53
2018-08-03T15:25:00.268Z,7.00
2018-08-03T15:26:16.946Z,10.30
2018-08-03T15:27:34.053Z,6.93
2018-08-03T15:28:51.016Z,9.40
2018-08-03T15:30:09.093Z,6.97
2018-08-03T15:31:26.726Z,7.57
2018-08-03T15:32:43.517Z,10.10
2018-08-03T15:34:00.172Z,7.10
2018-08-03T15:35:17.035Z,6.53
2018-08-03T15:36:33.913Z,7.60
2018-08-03T15:37:50.962Z,7.43
2018-08-03T15:39:09.240Z,6.90
2018-08-03T15:40:26.776Z,7.27
2018-08-03T15:41:44.455Z,6.30
2018-08-03T15:43:01.109Z,6.17
2018-08-03T15:44:17.749Z,7.30
2018-08-03T15:45:34.671Z,8.43
2018-08-03T15:46:51.241Z,8.50
2018-08-03T15:48:08.212Z,6.73
2018-08-03T15:49:25.121Z,8.10
2018-08-03T15:50:43.397Z,6.47
2018-08-03T15:52:00.614Z,6.43
2018-08-03T15:53:17.725Z,6.30
2018-08-03T15:54:35.444Z,7.83
2018-08-03T15:55:53.074Z,6.60
2018-08-03T15:57:09.958Z,7.73
2018-08-03T15:58:27.001Z,8.73
2018-08-03T15:59:43.800Z,6.67
2018-08-03T16:01:00.563Z,7.23
2018-08-03T16:02:17.330Z,7.13
2018-08-03T16:03:33.812Z,7.40
2018-08-03T16:04:50.749Z,7.80
2018-08-03T16:06:07.875Z,7.60
2018-08-03T16:07:24.433Z,6.43
2018-08-03T16:08:41.108Z,6.00
2018-08-03T16:09:57.880Z,6.70
2018-08-03T16:11:14.937Z,7.80
2018-08-03T16:12:31.827Z,9.33
2018-08-03T16:13:49.336Z,8.37
2018-08-03T16:15:06.468Z,8.83
2018-08-03T16:16:23.944Z,9.20
2018-08-03T16:17:40.781Z,9.57
2018-08-03T16:18:57.677Z,9.60
2018-08-03T16:20:14.529Z,9.10
2018-08-03T16:21:31.964Z,8.70
2018-08-03T16:22:49.033Z,9.97
2018-08-03T16:24:06.596Z,8.17
2018-08-03T16:25:23.452Z,8.97
2018-08-03T16:26:40.392Z,7.90
2018-08-03T16:27:57.193Z,10.20
2018-08-03T16:29:13.801Z,8.23
2018-08-03T16:30:30.704Z,7.27
2018-08-03T16:31:47.639Z,9.03
2018-08-03T16:33:04.536Z,9.50
2018-08-03T16:34:21.420Z,8.30
2018-08-03T16:35:38.195Z,8.73
2018-08-03T16:36:54.794Z,8.67
2018-08-03T16:38:11.843Z,7.43
2018-08-03T16:39:28.901Z,15.07
2018-08-03T16:40:45.753Z,7.80
2018-08-03T16:42:02.797Z,8.27
2018-08-03T16:43:20.258Z,8.07
2018-08-03T16:44:37.560Z,7.70
2018-08-03T16:45:54.453Z,8.33
2018-08-03T16:47:11.225Z,7.23
2018-08-03T16:48:27.888Z,8.70
2018-08-03T16:49:44.893Z,12.27